Time;durP1;ratioP1;P1;durP2;ratioP2;P2;SDS_P1;SDS_P2;PMS_P1;PMS_P2;Temp;Humidity;BMP_temperature;BMP_pressure;BME280_temperature;BME280_humidity;BME280_pressure;Samples;Min_cycle;Max_cycle;Signal;HPM_P1;HPM_P2
2022/03/18 00:00:18;;;;;;;54.85;25.95;;;;;;;2.60;72.75;101813.84;4398762;32;33792;-59
2022/03/18 00:02:47;;;;;;;49.35;24.83;;;;;;;2.39;73.72;101823.53;4394678;32;34262;-59
2022/03/18 00:05:15;;;;;;;46.92;23.55;;;;;;;2.60;73.13;101818.97;4399066;32;34573;-59
2022/03/18 00:07:43;;;;;;;54.00;25.85;;;;;;;3.01;71.63;101817.38;4400557;32;33504;-59
2022/03/18 00:10:12;;;;;;;54.13;28.38;;;;;;;2.96;71.87;101819.47;4408114;32;33770;-59
2022/03/18 00:12:40;;;;;;;49.47;25.65;;;;;;;2.64;72.95;101826.22;4409007;32;33422;-59
2022/03/18 00:15:09;;;;;;;57.00;27.33;;;;;;;2.32;74.12;101821.97;4394979;32;34230;-59
2022/03/18 00:17:38;;;;;;;51.37;26.00;;;;;;;2.12;74.72;101819.75;4408871;32;34697;-59
2022/03/18 00:20:08;;;;;;;53.70;27.00;;;;;;;2.22;74.64;101828.44;4407783;32;34315;-59
2022/03/18 00:22:35;;;;;;;51.65;27.98;;;;;;;2.27;74.71;101825.66;4408477;32;33465;-59
2022/03/18 00:25:06;;;;;;;55.88;28.40;;;;;;;2.03;75.34;101828.06;4407977;32;34021;-59
2022/03/18 00:27:35;;;;;;;53.60;28.17;;;;;;;2.08;75.18;101843.16;4409423;32;33906;-59
2022/03/18 00:30:03;;;;;;;57.42;27.40;;;;;;;1.90;75.58;101833.47;4407998;32;33741;-59
2022/03/18 00:32:31;;;;;;;55.47;26.55;;;;;;;1.99;75.91;101834.50;4406219;32;33207;-59
2022/03/18 00:34:59;;;;;;;53.80;25.70;;;;;;;1.93;76.63;101839.84;4404124;32;33923;-59
2022/03/18 00:37:26;;;;;;;54.30;27.23;;;;;;;2.12;76.44;101853.00;4411680;32;33709;-59
2022/03/18 00:39:54;;;;;;;53.75;25.15;;;;;;;2.22;75.79;101846.34;4405273;32;34169;-59
2022/03/18 00:42:21;;;;;;;50.95;24.70;;;;;;;2.14;77.38;101845.50;4406678;32;34209;-59
2022/03/18 00:44:49;;;;;;;48.50;25.15;;;;;;;2.75;75.00;101841.09;4405015;32;33608;-59
2022/03/18 00:52:50;;;;;;;47.15;23.67;;;;;;;3.86;67.46;101840.00;4406334;32;34269;-59
2022/03/18 00:55:17;;;;;;;50.55;24.30;;;;;;;3.46;67.11;101841.88;4403634;32;33729;-59
2022/03/18 00:57:44;;;;;;;43.45;22.75;;;;;;;2.92;69.63;101846.38;4405885;32;33574;-59
2022/03/18 01:00:12;;;;;;;50.47;23.85;;;;;;;3.00;70.00;101843.75;4405927;32;34083;-59
2022/03/18 01:02:40;;;;;;;47.70;24.70;;;;;;;2.94;70.46;101844.00;4392691;32;33277;-59
2022/03/18 01:05:08;;;;;;;46.95;24.70;;;;;;;2.67;71.00;101850.50;4406250;32;33663;-59
2022/03/18 01:07:35;;;;;;;55.63;26.25;;;;;;;2.32;72.22;101854.31;4403349;32;103271;-59
2022/03/18 01:10:04;;;;;;;61.60;29.15;;;;;;;1.73;74.76;101855.47;4394620;32;34626;-59
2022/03/18 01:12:31;;;;;;;61.63;29.20;;;;;;;1.39;75.59;101855.84;4408426;32;33625;-59
2022/03/18 01:14:59;;;;;;;55.30;27.17;;;;;;;1.10;76.62;101860.16;4407966;32;33533;-59
2022/03/18 01:17:26;;;;;;;53.10;26.90;;;;;;;1.22;76.53;101861.59;4407997;32;33762;-59
2022/03/18 01:19:54;;;;;;;59.22;27.65;;;;;;;1.25;76.89;101861.03;4407572;32;33975;-59
2022/03/18 01:22:22;;;;;;;57.78;27.25;;;;;;;1.18;77.51;101869.62;4408349;32;33559;-59
2022/03/18 01:24:49;;;;;;;48.72;25.08;;;;;;;1.29;77.59;101863.19;4392418;32;34436;-59
2022/03/18 01:27:16;;;;;;;50.88;24.73;;;;;;;1.49;76.97;101860.37;4408438;32;33924;-59
2022/03/18 01:29:44;;;;;;;52.78;25.23;;;;;;;1.95;75.44;101862.97;4408296;32;33774;-59
2022/03/18 01:32:12;;;;;;;52.20;25.00;;;;;;;3.09;71.33;101858.44;4408279;32;33409;-59
2022/03/18 01:34:39;;;;;;;43.00;22.98;;;;;;;3.84;66.26;101849.19;4394135;32;33919;-60
2022/03/18 01:37:07;;;;;;;47.50;23.80;;;;;;;3.35;65.68;101856.09;4408235;32;33928;-60
2022/03/18 01:39:34;;;;;;;49.45;25.02;;;;;;;2.75;68.06;101861.56;4408280;32;34680;-59
2022/03/18 01:42:02;;;;;;;46.00;24.05;;;;;;;2.24;70.84;101860.22;4408316;32;33251;-59
2022/03/18 01:44:29;;;;;;;47.83;24.58;;;;;;;2.08;71.80;101858.50;4407481;32;33414;-59
2022/03/18 01:46:59;;;;;;;47.05;23.95;;;;;;;2.56;71.08;101869.78;4408428;32;34053;-59
2022/03/18 01:49:26;;;;;;;47.58;24.10;;;;;;;3.41;68.05;101862.62;4408872;32;32400;-59
2022/03/18 01:51:54;;;;;;;46.88;23.92;;;;;;;3.09;68.09;101862.62;4407255;32;34048;-59
2022/03/18 01:57:08;;;;;;;46.03;23.60;;;;;;;3.98;64.96;101878.84;4394861;32;34171;-59
2022/03/18 01:59:36;;;;;;;42.25;21.40;;;;;;;4.05;63.87;101877.06;4408485;32;32816;-59
2022/03/18 02:02:04;;;;;;;41.40;20.35;;;;;;;3.59;65.08;101866.22;4407782;32;33566;-59
2022/03/18 02:04:34;;;;;;;42.95;21.87;;;;;;;3.91;64.65;101864.47;4406761;32;34359;-59
2022/03/18 02:07:03;;;;;;;46.67;23.42;;;;;;;4.41;62.74;101873.94;4407700;32;33928;-59
2022/03/18 02:09:31;;;;;;;44.83;22.58;;;;;;;4.43;60.40;101867.28;4408898;32;33553;-59
2022/03/18 02:12:00;;;;;;;41.42;20.50;;;;;;;4.46;59.45;101871.81;4406417;32;31744;-59
2022/03/18 02:14:47;;;;;;;39.67;20.95;;;;;;;4.36;59.98;101872.53;4407964;32;34828;-59
2022/03/18 02:17:17;;;;;;;42.90;21.25;;;;;;;4.38;59.76;101868.47;4404313;32;32480;-59
2022/03/18 02:19:45;;;;;;;50.50;23.42;;;;;;;3.33;63.23;101883.19;4407996;32;33906;-59
2022/03/18 02:22:15;;;;;;;48.92;22.83;;;;;;;2.59;65.77;101889.69;4407908;32;33731;-59
2022/03/18 02:24:45;;;;;;;53.97;22.60;;;;;;;1.92;68.80;101891.69;4408128;32;35760;-59
2022/03/18 02:27:13;;;;;;;54.55;24.10;;;;;;;1.56;70.54;101901.19;4408225;32;33661;-59
2022/03/18 02:29:41;;;;;;;49.17;24.70;;;;;;;1.43;71.44;101904.00;4407727;32;33886;-60
2022/03/18 02:32:10;;;;;;;47.97;23.45;;;;;;;1.58;71.30;101904.81;4407651;32;33525;-59
2022/03/18 02:34:38;;;;;;;44.03;22.60;;;;;;;1.55;72.12;101907.03;4378976;32;33862;-59
2022/03/18 02:37:06;;;;;;;43.03;22.15;;;;;;;2.21;70.25;101903.34;4406521;32;34032;-59
2022/03/18 02:39:35;;;;;;;43.40;21.52;;;;;;;2.30;70.05;101904.37;4396435;32;34088;-59
2022/03/18 02:42:02;;;;;;;42.65;22.35;;;;;;;2.88;68.34;101908.22;4407156;32;34329;-59
2022/03/18 02:44:30;;;;;;;46.53;21.92;;;;;;;3.47;65.99;101911.94;4407973;32;33628;-59
2022/03/18 02:46:58;;;;;;;46.60;22.92;;;;;;;3.37;65.78;101910.06;4407610;32;34897;-59
2022/03/18 02:49:25;;;;;;;46.85;22.40;;;;;;;2.94;65.69;101911.47;4407757;32;33623;-59
2022/03/18 02:51:53;;;;;;;41.70;22.15;;;;;;;2.52;67.30;101911.13;4393710;32;34234;-59
2022/03/18 02:54:21;;;;;;;43.65;21.37;;;;;;;3.44;64.39;101914.16;4407871;32;33971;-59
2022/03/18 02:56:49;;;;;;;42.80;21.92;;;;;;;3.59;63.77;101908.13;4406496;32;33693;-59
2022/03/18 02:59:16;;;;;;;42.60;21.55;;;;;;;3.61;62.65;101918.53;4407101;32;33885;-59
2022/03/18 03:01:45;;;;;;;39.38;20.33;;;;;;;3.68;62.17;101924.47;4398806;32;33535;-59
2022/03/18 03:04:14;;;;;;;40.72;21.15;;;;;;;3.24;63.81;101930.88;4407924;32;34744;-59
2022/03/18 03:09:28;;;;;;;42.75;19.87;;;;;;;3.09;64.57;101931.78;4407612;32;34155;-59
2022/03/18 03:11:56;;;;;;;40.58;20.27;;;;;;;2.70;66.23;101929.25;4406912;32;34398;-59
2022/03/18 03:14:24;;;;;;;43.78;21.23;;;;;;;2.74;65.92;101931.41;4407700;32;33600;-59
2022/03/18 03:16:52;;;;;;;44.13;21.20;;;;;;;1.95;68.51;101939.66;4407183;32;34775;-59
2022/03/18 03:19:19;;;;;;;45.10;22.08;;;;;;;1.81;69.78;101952.53;4407832;32;33699;-59
2022/03/18 03:21:47;;;;;;;43.85;22.13;;;;;;;1.57;71.41;101951.56;4402092;32;34252;-59
2022/03/18 03:24:14;;;;;;;43.53;21.80;;;;;;;2.34;70.03;101953.47;4407388;32;33960;-59
2022/03/18 03:26:42;;;;;;;39.70;21.35;;;;;;;3.02;67.13;101950.69;4405827;32;33801;-59
2022/03/18 03:29:09;;;;;;;41.63;20.12;;;;;;;3.53;64.07;101948.47;4407519;32;32578;-59
2022/03/18 03:31:37;;;;;;;35.97;19.83;;;;;;;3.48;63.52;101965.03;4407335;32;33952;-59
2022/03/18 03:34:04;;;;;;;40.58;20.33;;;;;;;3.74;62.34;101963.56;4406277;32;34037;-59
2022/03/18 03:36:32;;;;;;;38.15;18.70;;;;;;;4.02;60.75;101963.03;4406633;32;33470;-59
2022/03/18 03:38:59;;;;;;;42.85;20.42;;;;;;;3.67;61.40;101968.81;4407099;32;33639;-59
2022/03/18 03:41:27;;;;;;;37.75;19.92;;;;;;;3.47;62.45;101973.44;4406998;32;33367;-59
2022/03/18 03:43:54;;;;;;;36.58;20.45;;;;;;;3.31;63.52;101987.16;4407207;32;34757;-59
2022/03/18 03:46:22;;;;;;;35.95;20.05;;;;;;;3.30;62.29;101980.22;4406943;32;34734;-59
2022/03/18 03:48:49;;;;;;;35.30;18.55;;;;;;;3.48;61.57;101986.44;4407176;32;33794;-59
2022/03/18 03:51:16;;;;;;;35.22;17.55;;;;;;;3.67;60.37;101988.38;4406575;32;33242;-60
2022/03/18 03:53:44;;;;;;;32.80;18.35;;;;;;;3.38;59.23;101992.94;4406837;32;33961;-59
2022/03/18 03:56:11;;;;;;;27.45;15.80;;;;;;;3.21;59.21;101997.16;4406675;32;33650;-59
2022/03/18 03:58:39;;;;;;;30.35;16.20;;;;;;;3.26;58.62;101995.97;4406858;32;34330;-59
2022/03/18 04:01:06;;;;;;;29.95;16.08;;;;;;;3.21;58.29;101994.59;4392712;32;34259;-59
2022/03/18 04:03:35;;;;;;;29.33;15.73;;;;;;;3.14;57.11;101998.12;4392517;32;33638;-59
2022/03/18 04:06:02;;;;;;;28.77;14.82;;;;;;;3.24;56.70;102000.03;4406751;32;33368;-59
2022/03/18 04:08:30;;;;;;;27.40;14.90;;;;;;;3.30;55.79;102003.28;4396558;32;33722;-59
2022/03/18 04:10:58;;;;;;;25.77;13.75;;;;;;;3.70;54.20;102005.00;4393894;32;33505;-59
2022/03/18 04:13:25;;;;;;;30.05;14.87;;;;;;;3.27;54.71;102005.50;4390643;32;32528;-59
2022/03/18 04:15:52;;;;;;;29.75;15.45;;;;;;;3.44;54.08;102008.97;4391223;32;33984;-60
2022/03/18 04:18:20;;;;;;;26.70;14.68;;;;;;;3.44;53.50;102009.91;4389860;32;33908;-59
2022/03/18 04:20:47;;;;;;;27.98;14.25;;;;;;;3.90;52.20;102013.91;4395722;32;33465;-59
2022/03/18 04:23:15;;;;;;;25.88;14.13;;;;;;;4.16;51.67;102013.25;4394421;32;33925;-59
2022/03/18 04:25:43;;;;;;;27.40;14.87;;;;;;;4.02;51.14;102015.25;4395665;32;34002;-59
2022/03/18 04:28:10;;;;;;;33.80;15.13;;;;;;;3.78;52.31;102026.34;4377962;32;34442;-59
2022/03/18 04:30:37;;;;;;;29.95;15.02;;;;;;;3.89;51.93;102025.84;4395611;32;34222;-59
2022/03/18 04:33:05;;;;;;;28.33;14.80;;;;;;;4.12;51.46;102012.91;4394268;32;34025;-59
2022/03/18 04:35:32;;;;;;;29.48;14.90;;;;;;;4.46;50.12;102026.72;4395337;32;33920;-59
2022/03/18 04:38:00;;;;;;;29.95;16.17;;;;;;;4.05;51.02;102025.81;4393606;32;33845;-60
2022/03/18 04:40:28;;;;;;;31.15;16.67;;;;;;;4.34;49.90;102023.75;4405524;32;33208;-59
2022/03/18 04:42:55;;;;;;;27.60;15.85;;;;;;;4.33;49.92;102028.75;4394711;32;34754;-59
2022/03/18 04:45:23;;;;;;;26.60;14.73;;;;;;;4.35;49.64;102037.53;4393882;32;34537;-59
2022/03/18 04:47:56;;;;;;;24.73;14.35;;;;;;;4.37;49.16;102038.59;4379900;32;33988;-59
2022/03/18 04:50:23;;;;;;;31.30;15.23;;;;;;;4.42;49.35;102039.97;4393451;32;33651;-59
2022/03/18 04:52:51;;;;;;;29.83;14.40;;;;;;;4.57;48.60;102044.91;4394082;32;34648;-59
2022/03/18 04:55:19;;;;;;;28.35;13.82;;;;;;;4.82;47.91;102049.25;4394917;32;33724;-59
2022/03/18 04:57:46;;;;;;;25.08;13.90;;;;;;;4.87;48.17;102068.63;4386648;32;34563;-59
2022/03/18 05:00:14;;;;;;;24.65;13.07;;;;;;;4.77;48.00;102055.59;4398741;32;33374;-59
2022/03/18 05:02:43;;;;;;;27.27;13.50;;;;;;;4.55;47.96;102059.22;4398328;32;33701;-59
2022/03/18 05:05:11;;;;;;;26.65;13.35;;;;;;;4.57;48.11;102070.56;4393220;32;32511;-59
2022/03/18 05:07:39;;;;;;;24.30;13.15;;;;;;;5.30;46.37;102077.28;4398860;32;34682;-60
2022/03/18 05:10:08;;;;;;;25.98;13.00;;;;;;;4.69;47.69;102071.84;4394626;32;34289;-59
2022/03/18 05:12:35;;;;;;;27.27;11.98;;;;;;;4.46;47.16;102062.66;4407162;32;32357;-59
2022/03/18 05:15:03;;;;;;;23.77;12.40;;;;;;;4.17;48.74;102071.47;4407961;32;34238;-59
2022/03/18 05:17:31;;;;;;;23.75;13.40;;;;;;;4.30;47.19;102074.59;4407330;32;34596;-59
2022/03/18 05:20:02;;;;;;;22.83;12.23;;;;;;;4.44;47.07;102068.34;4407848;32;33023;-59
2022/03/18 05:22:30;;;;;;;22.48;11.85;;;;;;;4.35;46.72;102073.44;4394888;32;34616;-59
2022/03/18 05:24:59;;;;;;;25.05;12.00;;;;;;;4.07;47.10;102083.31;4407916;32;34761;-59
2022/03/18 05:27:26;;;;;;;21.02;11.70;;;;;;;4.17;46.50;102086.88;4406516;32;34465;-59
2022/03/18 05:32:41;;;;;;;25.52;12.32;;;;;;;4.49;45.71;102078.34;4396781;32;33981;-59
2022/03/18 05:35:10;;;;;;;19.62;10.85;;;;;;;4.52;45.06;102081.25;4408385;32;34793;-59
2022/03/18 05:37:38;;;;;;;21.10;11.27;;;;;;;4.85;44.21;102093.25;4408365;32;33973;-59
2022/03/18 05:40:08;;;;;;;23.45;11.10;;;;;;;4.79;43.87;102099.38;4408072;32;33672;-59
2022/03/18 05:42:35;;;;;;;20.73;10.63;;;;;;;4.55;44.13;102103.75;4394364;32;33413;-59
2022/03/18 05:45:03;;;;;;;25.73;11.05;;;;;;;4.81;43.70;102093.69;4408176;32;34720;-59
2022/03/18 05:47:31;;;;;;;22.23;11.07;;;;;;;4.88;42.47;102106.38;4408081;32;34597;-60
2022/03/18 05:50:03;;;;;;;20.75;9.95;;;;;;;4.69;42.73;102108.72;4393686;32;33954;-60
2022/03/18 05:52:36;;;;;;;25.15;10.85;;;;;;;4.68;42.97;102108.53;4382050;32;32301;-59
2022/03/18 05:55:03;;;;;;;22.33;10.27;;;;;;;4.67;42.93;102109.28;4402851;32;33654;-59
2022/03/18 05:57:32;;;;;;;19.52;10.50;;;;;;;4.78;42.85;102102.72;4394064;32;34045;-59
2022/03/18 06:00:00;;;;;;;20.70;10.32;;;;;;;5.28;41.44;102120.81;4408625;32;33936;-59
2022/03/18 06:02:28;;;;;;;20.42;9.48;;;;;;;4.78;42.60;102119.03;4407575;32;33954;-59
2022/03/18 06:04:57;;;;;;;19.23;9.93;;;;;;;5.25;43.06;102125.66;4406680;32;33699;-60
2022/03/18 06:07:24;;;;;;;15.70;9.07;;;;;;;5.21;41.92;102127.72;4406845;32;33788;-60
2022/03/18 06:12:38;;;;;;;20.08;9.40;;;;;;;5.18;43.49;102123.19;4407816;32;33629;-59
2022/03/18 06:15:06;;;;;;;18.05;10.43;;;;;;;5.46;40.98;102136.28;4407011;32;34034;-59
2022/03/18 06:17:34;;;;;;;18.17;9.82;;;;;;;5.56;40.64;102139.03;4407093;32;33821;-59
2022/03/18 06:20:01;;;;;;;19.12;11.00;;;;;;;5.53;40.49;102143.91;4408188;32;33326;-60
2022/03/18 06:22:29;;;;;;;20.75;10.32;;;;;;;5.60;40.51;102136.06;4394226;32;33370;-60
2022/03/18 06:24:57;;;;;;;21.12;9.63;;;;;;;5.52;40.57;102136.91;4407003;32;34505;-60
2022/03/18 06:27:25;;;;;;;23.90;11.30;;;;;;;5.95;40.22;102149.06;4394630;32;34004;-60
2022/03/18 06:29:52;;;;;;;25.00;11.15;;;;;;;5.90;40.11;102148.53;4407513;32;33444;-59
2022/03/18 06:32:20;;;;;;;20.23;11.02;;;;;;;6.36;39.87;102147.12;4408568;32;34051;-59
2022/03/18 06:34:48;;;;;;;24.60;10.70;;;;;;;6.01;39.92;102149.66;4407498;32;33865;-60
2022/03/18 06:37:15;;;;;;;18.23;11.18;;;;;;;6.22;39.49;102157.69;4408519;32;33956;-59
2022/03/18 06:39:43;;;;;;;19.25;10.45;;;;;;;6.45;39.48;102155.75;4407104;32;33445;-59
2022/03/18 06:42:11;;;;;;;23.08;10.93;;;;;;;6.60;39.37;102158.03;4383538;32;33874;-59
2022/03/18 06:44:38;;;;;;;22.00;10.43;;;;;;;5.94;40.24;102170.34;4392725;32;34650;-59
2022/03/18 06:47:06;;;;;;;23.83;10.82;;;;;;;6.51;39.09;102158.03;4405973;32;33573;-59
2022/03/18 06:49:34;;;;;;;16.52;9.30;;;;;;;6.25;38.95;102168.31;4406668;32;33373;-60
2022/03/18 06:52:04;;;;;;;19.67;9.82;;;;;;;6.45;38.07;102167.69;4407034;32;34698;-60
2022/03/18 06:54:31;;;;;;;21.27;9.98;;;;;;;6.72;37.89;102169.50;4405716;32;33940;-59
2022/03/18 06:56:59;;;;;;;19.05;9.70;;;;;;;6.42;38.17;102164.84;4392970;32;34052;-59
2022/03/18 06:59:27;;;;;;;18.48;9.55;;;;;;;6.27;38.53;102172.84;4406119;32;34212;-59
2022/03/18 07:01:54;;;;;;;27.73;11.10;;;;;;;6.35;37.76;102178.75;4407239;32;33910;-59
2022/03/18 07:04:23;;;;;;;21.15;10.15;;;;;;;6.14;38.16;102180.09;4406708;32;33626;-59
2022/03/18 07:06:51;;;;;;;18.92;10.05;;;;;;;6.50;37.74;102177.69;4405616;32;33908;-59
2022/03/18 07:09:18;;;;;;;18.05;9.93;;;;;;;6.70;37.35;102176.19;4402341;32;33288;-59
2022/03/18 07:11:46;;;;;;;22.23;11.38;;;;;;;6.67;37.56;102176.81;4399774;32;34435;-59
2022/03/18 07:14:13;;;;;;;22.00;10.45;;;;;;;6.29;37.92;102185.87;4404349;32;34814;-59
2022/03/18 07:19:28;;;;;;;19.83;10.57;;;;;;;6.89;37.42;102186.63;4405686;32;34393;-60
2022/03/18 07:21:56;;;;;;;19.15;10.45;;;;;;;6.73;37.21;102191.94;4406075;32;32224;-60
2022/03/18 07:24:23;;;;;;;22.40;10.63;;;;;;;6.55;37.18;102187.53;4407078;32;33924;-59
2022/03/18 07:26:51;;;;;;;17.87;9.80;;;;;;;6.38;38.02;102194.53;4407418;32;33790;-59
2022/03/18 07:29:18;;;;;;;16.73;9.75;;;;;;;6.73;37.23;102197.09;4407163;32;33281;-59
2022/03/18 07:31:45;;;;;;;18.83;9.50;;;;;;;6.41;37.76;102207.72;4404048;32;33667;-59
2022/03/18 07:34:13;;;;;;;19.90;9.88;;;;;;;6.38;37.95;102212.53;4407779;32;34206;-60
2022/03/18 07:36:40;;;;;;;18.87;10.55;;;;;;;6.72;37.37;102209.81;4407141;32;33789;-59
2022/03/18 07:39:08;;;;;;;20.90;11.30;;;;;;;6.58;37.89;102218.75;4407330;32;33529;-59
2022/03/18 07:41:36;;;;;;;22.05;10.68;;;;;;;6.67;37.27;102214.53;4405202;32;33922;-59
2022/03/18 07:44:04;;;;;;;19.23;10.82;;;;;;;6.60;37.20;102215.56;4406277;32;33826;-59
2022/03/18 07:46:31;;;;;;;21.12;11.40;;;;;;;6.49;37.03;102222.25;4405958;32;34554;-59
2022/03/18 07:48:59;;;;;;;20.77;10.63;;;;;;;6.75;36.98;102223.91;4379352;32;33393;-59
2022/03/18 07:51:27;;;;;;;21.25;10.60;;;;;;;6.87;37.19;102222.53;4407145;32;33576;-59
2022/03/18 07:53:55;;;;;;;24.05;11.23;;;;;;;7.19;36.20;102232.53;4409953;32;34021;-59
2022/03/18 07:56:23;;;;;;;21.60;10.60;;;;;;;7.29;36.30;102230.06;4408828;32;34255;-59
2022/03/18 07:58:50;;;;;;;20.00;10.88;;;;;;;7.17;36.44;102234.03;4408756;32;33408;-60
2022/03/18 08:01:18;;;;;;;21.65;10.40;;;;;;;7.55;36.27;102233.34;4409300;32;33672;-60
2022/03/18 08:03:45;;;;;;;20.65;10.93;;;;;;;7.78;36.33;102243.28;4408716;32;33753;-60
2022/03/18 08:06:13;;;;;;;22.75;10.73;;;;;;;8.03;35.45;102237.06;4408906;32;34817;-60
2022/03/18 08:08:40;;;;;;;21.08;10.98;;;;;;;8.10;35.51;102240.25;4409071;32;33450;-60
2022/03/18 08:11:08;;;;;;;19.87;11.40;;;;;;;8.28;35.21;102235.09;4409263;32;34165;-60
2022/03/18 08:13:36;;;;;;;20.52;11.32;;;;;;;7.91;35.29;102238.50;4399423;32;34507;-60
2022/03/18 08:16:04;;;;;;;22.58;10.90;;;;;;;8.12;35.30;102231.88;4408969;32;34595;-60
2022/03/18 08:18:38;;;;;;;20.05;11.68;;;;;;;8.21;35.13;102243.06;4406291;32;33505;-60
2022/03/18 08:21:05;;;;;;;22.23;11.57;;;;;;;7.54;36.12;102247.91;4394147;32;33711;-60
2022/03/18 08:23:34;;;;;;;22.52;11.73;;;;;;;7.63;36.29;102258.19;4398992;32;34662;-59
2022/03/18 08:26:02;;;;;;;23.12;11.48;;;;;;;7.46;36.20;102243.69;4406552;32;33938;-60
2022/03/18 08:28:29;;;;;;;23.98;12.60;;;;;;;7.46;36.39;102259.16;4402371;32;33445;-60
2022/03/18 08:30:57;;;;;;;19.23;11.65;;;;;;;7.72;36.30;102260.75;4400763;32;34017;-59
2022/03/18 08:33:26;;;;;;;22.45;12.70;;;;;;;7.61;36.22;102259.72;4416705;32;32372;-60
2022/03/18 08:35:53;;;;;;;21.37;11.65;;;;;;;8.31;35.94;102264.59;4408946;32;34543;-60
2022/03/18 08:38:20;;;;;;;20.75;12.25;;;;;;;8.15;36.54;102272.56;4407297;32;31782;-60
2022/03/18 08:40:48;;;;;;;21.42;11.30;;;;;;;8.48;36.17;102268.75;4407700;32;33776;-60
2022/03/18 08:43:15;;;;;;;20.30;11.43;;;;;;;8.38;35.75;102267.91;4397972;32;34070;-60
2022/03/18 08:45:43;;;;;;;25.45;13.62;;;;;;;8.64;35.73;102272.00;4400809;32;33910;-60
2022/03/18 08:48:11;;;;;;;24.83;13.18;;;;;;;8.53;37.13;102272.69;4403453;32;34183;-60
2022/03/18 08:50:38;;;;;;;22.98;13.05;;;;;;;9.19;35.03;102277.03;4399778;32;34987;-60
2022/03/18 08:53:09;;;;;;;23.98;13.95;;;;;;;8.93;35.06;102277.25;4408538;32;33914;-60
2022/03/18 08:55:40;;;;;;;21.87;12.45;;;;;;;9.00;35.10;102278.69;4408358;32;34119;-60
2022/03/18 08:58:08;;;;;;;24.50;13.57;;;;;;;8.49;35.57;102280.91;4407170;32;33101;-60
2022/03/18 09:00:36;;;;;;;24.33;12.18;;;;;;;8.56;35.80;102284.22;4408427;32;33738;-59
2022/03/18 09:03:04;;;;;;;25.45;13.18;;;;;;;8.85;35.03;102288.56;4401123;32;33361;-60
2022/03/18 09:05:32;;;;;;;21.12;11.93;;;;;;;8.55;35.19;102292.72;4413426;32;33932;-60
2022/03/18 09:07:59;;;;;;;23.35;13.95;;;;;;;8.84;36.27;102295.41;4402530;32;33569;-60
2022/03/18 09:10:27;;;;;;;30.20;13.75;;;;;;;9.25;35.25;102287.94;4407080;32;33797;-60
2022/03/18 09:13:01;;;;;;;25.27;13.38;;;;;;;9.48;35.35;102283.87;4405079;32;33927;-60
2022/03/18 09:15:30;;;;;;;25.15;12.75;;;;;;;9.48;35.17;102288.16;4394592;32;33882;-60
2022/03/18 09:17:58;;;;;;;27.58;13.62;;;;;;;9.28;35.05;102291.56;4408180;32;33511;-60
2022/03/18 09:20:25;;;;;;;21.58;12.55;;;;;;;9.49;34.84;102288.28;4407556;32;33987;-60
2022/03/18 09:22:53;;;;;;;24.50;14.38;;;;;;;9.60;34.86;102297.91;4406257;32;33784;-60
2022/03/18 09:25:21;;;;;;;31.42;13.98;;;;;;;9.78;34.39;102297.72;4407353;32;33856;-60
2022/03/18 09:27:48;;;;;;;24.70;13.90;;;;;;;9.72;34.32;102298.09;4398427;32;33276;-60
2022/03/18 09:30:36;;;;;;;24.42;13.75;;;;;;;9.56;35.53;102306.19;4402564;32;34599;-60
2022/03/18 09:33:04;;;;;;;22.83;13.23;;;;;;;9.60;35.36;102304.75;4406502;32;33911;-60
2022/03/18 09:35:31;;;;;;;32.10;15.00;;;;;;;9.86;34.53;102301.00;4406749;32;34029;-59
2022/03/18 09:37:59;;;;;;;28.38;14.77;;;;;;;9.92;35.14;102307.59;4408159;32;33509;-60
2022/03/18 09:40:26;;;;;;;28.50;14.73;;;;;;;10.03;35.89;102299.09;4407278;32;33717;-60
2022/03/18 09:43:14;;;;;;;26.83;14.40;;;;;;;10.38;35.57;102296.06;4407441;32;33891;-60
2022/03/18 09:45:42;;;;;;;26.08;14.98;;;;;;;10.86;35.44;102302.69;4405531;32;34749;-60
2022/03/18 09:48:17;;;;;;;29.85;15.82;;;;;;;11.04;35.70;102303.31;4406833;32;34090;-60
2022/03/18 09:50:45;;;;;;;30.37;16.95;;;;;;;10.71;35.80;102299.72;4406075;32;34049;-60
2022/03/18 09:53:16;;;;;;;28.60;16.35;;;;;;;10.55;37.20;102306.97;4406424;32;34463;-60
2022/03/18 09:55:43;;;;;;;31.70;16.95;;;;;;;10.92;36.94;102292.81;4402324;32;33964;-60
2022/03/18 09:58:13;;;;;;;29.70;16.83;;;;;;;11.64;35.23;102294.31;4405041;32;34086;-60
2022/03/18 10:00:40;;;;;;;34.15;15.55;;;;;;;11.28;35.63;102295.72;4406747;32;34076;-59
2022/03/18 10:03:16;;;;;;;27.85;16.37;;;;;;;11.23;35.76;102304.84;4405212;32;33814;-60
2022/03/18 10:05:46;;;;;;;30.45;17.10;;;;;;;11.27;35.11;102301.72;4406597;32;33793;-60
2022/03/18 10:08:14;;;;;;;29.50;15.77;;;;;;;11.64;34.47;102309.88;4406162;32;33620;-60
2022/03/18 10:10:46;;;;;;;29.10;17.10;;;;;;;12.04;34.26;102303.63;4394359;32;33882;-60
2022/03/18 10:13:15;;;;;;;38.00;18.73;;;;;;;12.12;35.07;102306.81;4398970;32;33382;-60
2022/03/18 10:15:46;;;;;;;30.12;17.30;;;;;;;11.93;35.15;102314.84;4405246;32;34035;-60
2022/03/18 10:18:14;;;;;;;31.12;17.83;;;;;;;12.22;35.21;102309.34;4404764;32;33007;-60
2022/03/18 10:20:45;;;;;;;40.35;20.33;;;;;;;12.51;35.28;102308.09;4404908;32;34777;-60
2022/03/18 10:23:18;;;;;;;44.70;22.95;;;;;;;11.92;36.19;102308.75;4404969;32;33936;-60
2022/03/18 10:25:56;;;;;;;36.05;18.30;;;;;;;11.77;38.14;102313.59;4412638;32;34358;-60
2022/03/18 10:28:35;;;;;;;34.65;18.30;;;;;;;12.43;36.57;102304.00;4399226;32;34101;-60
2022/03/18 10:31:09;;;;;;;33.92;17.48;;;;;;;12.92;36.46;102310.34;4408721;32;33554;-59
2022/03/18 10:39:36;;;;;;;30.80;18.40;;;;;;;12.66;39.02;102304.06;4399044;32;33623;-59
2022/03/18 10:42:11;;;;;;;32.72;18.65;;;;;;;12.43;37.40;102298.81;4406927;32;33699;-59
2022/03/18 10:44:50;;;;;;;31.17;17.85;;;;;;;12.58;36.75;102307.78;4408268;32;33823;-59
2022/03/18 10:47:41;;;;;;;36.45;18.30;;;;;;;12.39;37.02;102297.66;4403471;32;33625;-59
2022/03/18 10:50:13;;;;;;;28.62;17.65;;;;;;;13.25;35.85;102309.38;4404431;32;34203;-60
2022/03/18 10:52:47;;;;;;;33.53;17.65;;;;;;;12.08;38.40;102307.38;4405646;32;33919;-59
2022/03/18 10:55:21;;;;;;;34.28;19.27;;;;;;;12.53;36.98;102307.41;4405702;32;33902;-60
2022/03/18 10:58:06;;;;;;;35.03;18.37;;;;;;;12.77;36.32;102308.41;4403975;32;33790;-59
2022/03/18 11:00:34;;;;;;;;;;;;;;;13.38;35.62;102303.38;4403302;32;33548;-60
2022/03/18 11:03:03;;;;;;;31.60;17.10;;;;;;;13.50;34.91;102301.69;4403504;32;35082;-60
2022/03/18 11:05:36;;;;;;;31.25;17.80;;;;;;;12.54;36.29;102300.56;4406820;32;33762;-60
2022/03/18 11:08:07;;;;;;;35.85;19.40;;;;;;;12.74;36.68;102300.34;4405558;32;34376;-60
2022/03/18 11:13:23;;;;;;;38.28;19.73;;;;;;;12.84;37.09;102303.66;4408999;32;33834;-60
2022/03/18 11:15:51;;;;;;;32.63;18.90;;;;;;;12.63;37.22;102303.81;4406455;32;33695;-60
2022/03/18 11:18:19;;;;;;;34.05;19.17;;;;;;;12.87;36.43;102303.91;4406607;32;34720;-60
2022/03/18 11:20:50;;;;;;;32.53;18.85;;;;;;;12.27;37.53;102299.31;4406763;32;33901;-60
2022/03/18 11:23:22;;;;;;;33.85;18.98;;;;;;;12.93;36.63;102299.16;4393427;32;33733;-60
2022/03/18 11:26:00;;;;;;;30.58;18.98;;;;;;;12.98;36.09;102293.50;4404213;32;34119;-60
2022/03/18 11:28:29;;;;;;;31.00;18.90;;;;;;;12.85;36.79;102289.88;4396435;32;34876;-60
2022/03/18 11:31:17;;;;;;;31.85;18.70;;;;;;;12.96;36.90;102294.16;4399317;32;33386;-60
2022/03/18 11:34:10;;;;;;;37.30;19.33;;;;;;;13.52;35.65;102289.69;4410626;32;33807;-61
2022/03/18 11:36:47;;;;;;;33.83;19.42;;;;;;;13.11;36.32;102297.91;4407260;32;33918;-61
2022/03/18 11:39:21;;;;;;;33.90;19.73;;;;;;;13.21;36.63;102285.59;4409413;32;33921;-60
2022/03/18 11:41:52;;;;;;;34.80;19.95;;;;;;;12.57;37.58;102287.78;4413985;32;33026;-60
2022/03/18 11:44:44;;;;;;;37.28;20.52;;;;;;;12.83;37.72;102287.16;4408213;32;32328;-60
2022/03/18 11:47:30;;;;;;;35.70;20.00;;;;;;;12.23;38.52;102287.78;4397674;32;33749;-60
2022/03/18 11:50:40;;;;;;;37.42;19.45;;;;;;;12.61;38.05;102279.41;4410112;32;33916;-59
2022/03/18 11:53:11;;;;;;;33.08;18.67;;;;;;;12.87;37.95;102277.91;4404153;32;33321;-61